sensor_id;sensor_type;location;lat;lon;timestamp;P1;durP1;ratioP1;P2;durP2;ratioP2
77158;SDS011;66129;45.890;13.714;2024-01-11T00:02:21;14.88;;;7.80;;
77158;SDS011;66129;45.890;13.714;2024-01-11T00:04:47;14.13;;;6.78;;
77158;SDS011;66129;45.890;13.714;2024-01-11T00:07:12;13.93;;;7.55;;
77158;SDS011;66129;45.890;13.714;2024-01-11T00:09:41;15.98;;;7.07;;
77158;SDS011;66129;45.890;13.714;2024-01-11T00:12:07;12.68;;;6.70;;
77158;SDS011;66129;45.890;13.714;2024-01-11T00:14:34;12.32;;;5.88;;
77158;SDS011;66129;45.890;13.714;2024-01-11T00:17:00;10.73;;;5.40;;
77158;SDS011;66129;45.890;13.714;2024-01-11T00:19:25;11.95;;;5.32;;
77158;SDS011;66129;45.890;13.714;2024-01-11T00:21:51;10.57;;;5.68;;
77158;SDS011;66129;45.890;13.714;2024-01-11T00:24:16;13.88;;;6.30;;
77158;SDS011;66129;45.890;13.714;2024-01-11T00:26:42;15.77;;;7.63;;
77158;SDS011;66129;45.890;13.714;2024-01-11T00:29:07;15.32;;;6.95;;
77158;SDS011;66129;45.890;13.714;2024-01-11T00:31:33;15.15;;;6.60;;
77158;SDS011;66129;45.890;13.714;2024-01-11T00:33:58;13.43;;;6.28;;
77158;SDS011;66129;45.890;13.714;2024-01-11T00:36:24;11.45;;;5.47;;
77158;SDS011;66129;45.890;13.714;2024-01-11T00:38:49;9.73;;;4.65;;
77158;SDS011;66129;45.890;13.714;2024-01-11T00:41:15;12.27;;;6.07;;
77158;SDS011;66129;45.890;13.714;2024-01-11T00:43:40;14.27;;;6.20;;
77158;SDS011;66129;45.890;13.714;2024-01-11T00:46:06;23.15;;;6.70;;
77158;SDS011;66129;45.890;13.714;2024-01-11T00:48:32;15.82;;;6.18;;
77158;SDS011;66129;45.890;13.714;2024-01-11T00:50:58;10.30;;;5.80;;
77158;SDS011;66129;45.890;13.714;2024-01-11T00:53:23;12.48;;;6.65;;
77158;SDS011;66129;45.890;13.714;2024-01-11T00:55:51;13.45;;;6.43;;
77158;SDS011;66129;45.890;13.714;2024-01-11T00:58:16;16.08;;;7.10;;
77158;SDS011;66129;45.890;13.714;2024-01-11T01:00:41;13.52;;;6.88;;
77158;SDS011;66129;45.890;13.714;2024-01-11T01:03:07;16.27;;;6.93;;
77158;SDS011;66129;45.890;13.714;2024-01-11T01:05:32;16.73;;;7.90;;
77158;SDS011;66129;45.890;13.714;2024-01-11T01:07:58;17.52;;;8.93;;
77158;SDS011;66129;45.890;13.714;2024-01-11T01:10:23;25.13;;;9.00;;
77158;SDS011;66129;45.890;13.714;2024-01-11T01:12:49;14.18;;;6.80;;
77158;SDS011;66129;45.890;13.714;2024-01-11T01:15:14;16.65;;;8.10;;
77158;SDS011;66129;45.890;13.714;2024-01-11T01:17:40;16.90;;;8.20;;
77158;SDS011;66129;45.890;13.714;2024-01-11T01:20:06;19.45;;;7.10;;
77158;SDS011;66129;45.890;13.714;2024-01-11T01:22:32;13.15;;;7.38;;
77158;SDS011;66129;45.890;13.714;2024-01-11T01:24:57;16.45;;;7.07;;
77158;SDS011;66129;45.890;13.714;2024-01-11T01:27:23;17.10;;;7.30;;
77158;SDS011;66129;45.890;13.714;2024-01-11T01:29:48;14.38;;;6.88;;
77158;SDS011;66129;45.890;13.714;2024-01-11T01:32:14;12.57;;;5.90;;
77158;SDS011;66129;45.890;13.714;2024-01-11T01:34:39;12.88;;;6.78;;
77158;SDS011;66129;45.890;13.714;2024-01-11T01:37:04;16.25;;;7.95;;
77158;SDS011;66129;45.890;13.714;2024-01-11T01:39:31;14.00;;;6.78;;
77158;SDS011;66129;45.890;13.714;2024-01-11T01:41:56;16.75;;;7.80;;
77158;SDS011;66129;45.890;13.714;2024-01-11T01:44:21;15.60;;;7.78;;
77158;SDS011;66129;45.890;13.714;2024-01-11T01:46:47;11.77;;;8.00;;
77158;SDS011;66129;45.890;13.714;2024-01-11T01:49:14;12.57;;;6.70;;
77158;SDS011;66129;45.890;13.714;2024-01-11T01:51:43;18.38;;;9.05;;
77158;SDS011;66129;45.890;13.714;2024-01-11T01:54:08;15.68;;;7.82;;
77158;SDS011;66129;45.890;13.714;2024-01-11T01:56:34;19.95;;;9.23;;
77158;SDS011;66129;45.890;13.714;2024-01-11T01:58:59;19.55;;;8.40;;
77158;SDS011;66129;45.890;13.714;2024-01-11T02:01:26;17.73;;;8.63;;
77158;SDS011;66129;45.890;13.714;2024-01-11T02:03:52;15.27;;;7.13;;
77158;SDS011;66129;45.890;13.714;2024-01-11T02:06:20;15.85;;;7.13;;
77158;SDS011;66129;45.890;13.714;2024-01-11T02:08:48;16.80;;;7.32;;
77158;SDS011;66129;45.890;13.714;2024-01-11T02:11:16;17.13;;;7.88;;
77158;SDS011;66129;45.890;13.714;2024-01-11T02:13:44;14.25;;;7.38;;
77158;SDS011;66129;45.890;13.714;2024-01-11T02:16:11;12.65;;;7.55;;
77158;SDS011;66129;45.890;13.714;2024-01-11T02:18:38;15.88;;;8.95;;
77158;SDS011;66129;45.890;13.714;2024-01-11T02:21:03;16.92;;;7.40;;
77158;SDS011;66129;45.890;13.714;2024-01-11T02:23:33;20.83;;;8.77;;
77158;SDS011;66129;45.890;13.714;2024-01-11T02:26:05;13.15;;;6.07;;
77158;SDS011;66129;45.890;13.714;2024-01-11T02:28:30;16.13;;;7.70;;
77158;SDS011;66129;45.890;13.714;2024-01-11T02:30:56;13.80;;;7.55;;
77158;SDS011;66129;45.890;13.714;2024-01-11T02:33:21;16.45;;;7.93;;
77158;SDS011;66129;45.890;13.714;2024-01-11T02:35:47;15.15;;;6.97;;
77158;SDS011;66129;45.890;13.714;2024-01-11T02:38:13;15.40;;;6.10;;
77158;SDS011;66129;45.890;13.714;2024-01-11T02:40:39;14.18;;;6.65;;
77158;SDS011;66129;45.890;13.714;2024-01-11T02:43:08;13.35;;;6.03;;
77158;SDS011;66129;45.890;13.714;2024-01-11T02:45:35;9.82;;;5.07;;
77158;SDS011;66129;45.890;13.714;2024-01-11T02:48:00;11.45;;;5.75;;
77158;SDS011;66129;45.890;13.714;2024-01-11T02:50:26;15.98;;;5.75;;
77158;SDS011;66129;45.890;13.714;2024-01-11T02:52:51;12.52;;;4.88;;
77158;SDS011;66129;45.890;13.714;2024-01-11T02:55:17;11.52;;;5.00;;
77158;SDS011;66129;45.890;13.714;2024-01-11T02:57:42;12.77;;;6.57;;
77158;SDS011;66129;45.890;13.714;2024-01-11T03:00:08;19.05;;;6.32;;
77158;SDS011;66129;45.890;13.714;2024-01-11T03:02:34;19.65;;;8.27;;
77158;SDS011;66129;45.890;13.714;2024-01-11T03:04:59;14.30;;;6.57;;
77158;SDS011;66129;45.890;13.714;2024-01-11T03:07:24;14.00;;;8.27;;
77158;SDS011;66129;45.890;13.714;2024-01-11T03:09:50;14.07;;;7.63;;
77158;SDS011;66129;45.890;13.714;2024-01-11T03:12:15;15.75;;;5.47;;
77158;SDS011;66129;45.890;13.714;2024-01-11T03:14:41;7.88;;;5.03;;
77158;SDS011;66129;45.890;13.714;2024-01-11T03:17:06;14.32;;;7.72;;
77158;SDS011;66129;45.890;13.714;2024-01-11T03:19:32;15.13;;;7.20;;
77158;SDS011;66129;45.890;13.714;2024-01-11T03:21:57;14.95;;;7.07;;
77158;SDS011;66129;45.890;13.714;2024-01-11T03:24:23;10.68;;;5.88;;
77158;SDS011;66129;45.890;13.714;2024-01-11T03:26:48;9.95;;;6.57;;
77158;SDS011;66129;45.890;13.714;2024-01-11T03:29:14;13.52;;;6.07;;
77158;SDS011;66129;45.890;13.714;2024-01-11T03:31:39;14.23;;;6.47;;
77158;SDS011;66129;45.890;13.714;2024-01-11T03:34:07;12.07;;;6.43;;
77158;SDS011;66129;45.890;13.714;2024-01-11T03:36:33;16.25;;;7.57;;
77158;SDS011;66129;45.890;13.714;2024-01-11T03:38:58;14.55;;;6.80;;
77158;SDS011;66129;45.890;13.714;2024-01-11T03:41:24;17.08;;;7.57;;
77158;SDS011;66129;45.890;13.714;2024-01-11T03:43:49;14.48;;;6.35;;
77158;SDS011;66129;45.890;13.714;2024-01-11T03:46:15;14.60;;;5.95;;
77158;SDS011;66129;45.890;13.714;2024-01-11T03:48:41;12.98;;;6.25;;
77158;SDS011;66129;45.890;13.714;2024-01-11T03:51:06;11.65;;;6.85;;
77158;SDS011;66129;45.890;13.714;2024-01-11T03:53:35;11.63;;;6.22;;
77158;SDS011;66129;45.890;13.714;2024-01-11T03:56:02;15.52;;;6.53;;
77158;SDS011;66129;45.890;13.714;2024-01-11T03:58:27;11.77;;;4.82;;
77158;SDS011;66129;45.890;13.714;2024-01-11T04:00:53;11.32;;;5.05;;
77158;SDS011;66129;45.890;13.714;2024-01-11T04:03:19;14.55;;;6.55;;
77158;SDS011;66129;45.890;13.714;2024-01-11T04:05:44;14.75;;;6.32;;
77158;SDS011;66129;45.890;13.714;2024-01-11T04:08:10;8.15;;;5.30;;
77158;SDS011;66129;45.890;13.714;2024-01-11T04:10:35;14.70;;;6.03;;
77158;SDS011;66129;45.890;13.714;2024-01-11T04:13:01;12.07;;;6.80;;
77158;SDS011;66129;45.890;13.714;2024-01-11T04:15:26;17.80;;;6.07;;
77158;SDS011;66129;45.890;13.714;2024-01-11T04:17:52;13.38;;;5.82;;
77158;SDS011;66129;45.890;13.714;2024-01-11T04:20:17;12.02;;;5.53;;
77158;SDS011;66129;45.890;13.714;2024-01-11T04:22:43;10.13;;;5.60;;
77158;SDS011;66129;45.890;13.714;2024-01-11T04:25:08;11.43;;;6.22;;
77158;SDS011;66129;45.890;13.714;2024-01-11T04:27:34;15.88;;;7.30;;
77158;SDS011;66129;45.890;13.714;2024-01-11T04:29:59;17.50;;;6.38;;
77158;SDS011;66129;45.890;13.714;2024-01-11T04:32:25;12.27;;;5.22;;
77158;SDS011;66129;45.890;13.714;2024-01-11T04:34:50;29.35;;;9.15;;
77158;SDS011;66129;45.890;13.714;2024-01-11T04:37:16;42.80;;;18.17;;
77158;SDS011;66129;45.890;13.714;2024-01-11T04:39:41;35.95;;;14.82;;
77158;SDS011;66129;45.890;13.714;2024-01-11T04:42:07;17.20;;;8.40;;
77158;SDS011;66129;45.890;13.714;2024-01-11T04:44:32;17.17;;;7.90;;
77158;SDS011;66129;45.890;13.714;2024-01-11T04:46:58;13.52;;;6.97;;
77158;SDS011;66129;45.890;13.714;2024-01-11T04:49:25;9.00;;;5.57;;
77158;SDS011;66129;45.890;13.714;2024-01-11T04:51:51;10.48;;;5.75;;
77158;SDS011;66129;45.890;13.714;2024-01-11T04:54:16;11.27;;;7.25;;
77158;SDS011;66129;45.890;13.714;2024-01-11T04:56:41;14.60;;;5.40;;
77158;SDS011;66129;45.890;13.714;2024-01-11T04:59:07;16.05;;;7.93;;
77158;SDS011;66129;45.890;13.714;2024-01-11T05:01:32;14.25;;;6.15;;
77158;SDS011;66129;45.890;13.714;2024-01-11T05:03:58;16.02;;;7.78;;
77158;SDS011;66129;45.890;13.714;2024-01-11T05:06:24;18.65;;;7.88;;
77158;SDS011;66129;45.890;13.714;2024-01-11T05:08:50;13.25;;;6.75;;
77158;SDS011;66129;45.890;13.714;2024-01-11T05:11:20;14.07;;;6.03;;
77158;SDS011;66129;45.890;13.714;2024-01-11T05:13:49;15.13;;;7.15;;
77158;SDS011;66129;45.890;13.714;2024-01-11T05:18:45;10.52;;;6.70;;
77158;SDS011;66129;45.890;13.714;2024-01-11T05:21:11;14.18;;;7.40;;
77158;SDS011;66129;45.890;13.714;2024-01-11T05:23:37;11.77;;;6.40;;
77158;SDS011;66129;45.890;13.714;2024-01-11T05:26:02;20.38;;;7.22;;
77158;SDS011;66129;45.890;13.714;2024-01-11T05:28:28;15.32;;;6.65;;
77158;SDS011;66129;45.890;13.714;2024-01-11T05:30:53;14.50;;;7.07;;
77158;SDS011;66129;45.890;13.714;2024-01-11T05:33:20;34.67;;;17.45;;
77158;SDS011;66129;45.890;13.714;2024-01-11T05:35:45;31.80;;;16.20;;
77158;SDS011;66129;45.890;13.714;2024-01-11T05:38:11;17.10;;;9.82;;
77158;SDS011;66129;45.890;13.714;2024-01-11T05:40:36;16.85;;;7.80;;
77158;SDS011;66129;45.890;13.714;2024-01-11T05:43:02;16.35;;;7.25;;
77158;SDS011;66129;45.890;13.714;2024-01-11T05:45:27;17.15;;;8.10;;
77158;SDS011;66129;45.890;13.714;2024-01-11T05:47:53;20.45;;;7.75;;
77158;SDS011;66129;45.890;13.714;2024-01-11T05:50:18;17.50;;;8.07;;
77158;SDS011;66129;45.890;13.714;2024-01-11T05:52:44;18.80;;;8.88;;
77158;SDS011;66129;45.890;13.714;2024-01-11T05:55:09;13.50;;;6.70;;
77158;SDS011;66129;45.890;13.714;2024-01-11T05:57:35;11.95;;;6.68;;
77158;SDS011;66129;45.890;13.714;2024-01-11T06:00:00;13.15;;;6.78;;
77158;SDS011;66129;45.890;13.714;2024-01-11T06:02:26;16.45;;;7.22;;
77158;SDS011;66129;45.890;13.714;2024-01-11T06:04:52;17.27;;;7.32;;
77158;SDS011;66129;45.890;13.714;2024-01-11T06:07:17;23.05;;;7.88;;
77158;SDS011;66129;45.890;13.714;2024-01-11T06:09:43;8.52;;;5.75;;
77158;SDS011;66129;45.890;13.714;2024-01-11T06:12:08;18.45;;;7.35;;
77158;SDS011;66129;45.890;13.714;2024-01-11T06:14:34;13.77;;;7.28;;
77158;SDS011;66129;45.890;13.714;2024-01-11T06:16:59;15.38;;;7.30;;
77158;SDS011;66129;45.890;13.714;2024-01-11T06:19:25;11.43;;;5.88;;
77158;SDS011;66129;45.890;13.714;2024-01-11T06:21:50;14.00;;;5.65;;
77158;SDS011;66129;45.890;13.714;2024-01-11T06:24:16;13.85;;;5.95;;
77158;SDS011;66129;45.890;13.714;2024-01-11T06:26:42;18.13;;;8.05;;
77158;SDS011;66129;45.890;13.714;2024-01-11T06:29:08;16.25;;;8.02;;
77158;SDS011;66129;45.890;13.714;2024-01-11T06:31:33;22.10;;;10.38;;
77158;SDS011;66129;45.890;13.714;2024-01-11T06:33:59;23.60;;;8.93;;
77158;SDS011;66129;45.890;13.714;2024-01-11T06:36:24;25.25;;;9.43;;
77158;SDS011;66129;45.890;13.714;2024-01-11T06:38:50;26.40;;;12.27;;
77158;SDS011;66129;45.890;13.714;2024-01-11T06:41:15;25.55;;;12.52;;
77158;SDS011;66129;45.890;13.714;2024-01-11T06:43:41;20.13;;;9.95;;
77158;SDS011;66129;45.890;13.714;2024-01-11T06:46:06;23.83;;;12.70;;
77158;SDS011;66129;45.890;13.714;2024-01-11T06:48:34;19.20;;;11.88;;
77158;SDS011;66129;45.890;13.714;2024-01-11T06:50:59;17.63;;;9.75;;
77158;SDS011;66129;45.890;13.714;2024-01-11T06:53:25;16.42;;;10.15;;
77158;SDS011;66129;45.890;13.714;2024-01-11T06:55:50;15.10;;;7.93;;
77158;SDS011;66129;45.890;13.714;2024-01-11T06:58:17;19.73;;;9.23;;
77158;SDS011;66129;45.890;13.714;2024-01-11T07:00:42;10.18;;;6.75;;
77158;SDS011;66129;45.890;13.714;2024-01-11T07:03:09;14.05;;;7.03;;
77158;SDS011;66129;45.890;13.714;2024-01-11T07:05:35;11.48;;;6.38;;
77158;SDS011;66129;45.890;13.714;2024-01-11T07:08:01;14.20;;;7.45;;
77158;SDS011;66129;45.890;13.714;2024-01-11T07:10:26;16.48;;;7.00;;
77158;SDS011;66129;45.890;13.714;2024-01-11T07:12:52;13.52;;;7.30;;
77158;SDS011;66129;45.890;13.714;2024-01-11T07:15:17;17.80;;;7.57;;
77158;SDS011;66129;45.890;13.714;2024-01-11T07:17:43;15.23;;;8.07;;
77158;SDS011;66129;45.890;13.714;2024-01-11T07:20:08;20.20;;;9.13;;
77158;SDS011;66129;45.890;13.714;2024-01-11T07:22:35;20.73;;;11.07;;
77158;SDS011;66129;45.890;13.714;2024-01-11T07:25:00;27.15;;;11.73;;
77158;SDS011;66129;45.890;13.714;2024-01-11T07:27:26;26.38;;;12.45;;
77158;SDS011;66129;45.890;13.714;2024-01-11T07:29:51;27.60;;;12.63;;
77158;SDS011;66129;45.890;13.714;2024-01-11T07:32:17;20.90;;;10.50;;
77158;SDS011;66129;45.890;13.714;2024-01-11T07:34:42;21.38;;;11.68;;
77158;SDS011;66129;45.890;13.714;2024-01-11T07:37:08;22.13;;;10.80;;
77158;SDS011;66129;45.890;13.714;2024-01-11T07:39:33;32.42;;;14.25;;
77158;SDS011;66129;45.890;13.714;2024-01-11T07:42:00;30.85;;;15.10;;
77158;SDS011;66129;45.890;13.714;2024-01-11T07:44:26;30.27;;;13.77;;
77158;SDS011;66129;45.890;13.714;2024-01-11T07:46:51;25.83;;;13.23;;
77158;SDS011;66129;45.890;13.714;2024-01-11T07:49:17;32.60;;;15.18;;
77158;SDS011;66129;45.890;13.714;2024-01-11T07:51:42;45.80;;;18.63;;
77158;SDS011;66129;45.890;13.714;2024-01-11T07:54:07;36.97;;;17.35;;
77158;SDS011;66129;45.890;13.714;2024-01-11T07:56:33;26.40;;;11.88;;
77158;SDS011;66129;45.890;13.714;2024-01-11T07:59:00;21.95;;;13.20;;
77158;SDS011;66129;45.890;13.714;2024-01-11T08:01:25;21.08;;;11.15;;
77158;SDS011;66129;45.890;13.714;2024-01-11T08:03:51;26.33;;;12.65;;
77158;SDS011;66129;45.890;13.714;2024-01-11T08:06:17;30.80;;;13.75;;
77158;SDS011;66129;45.890;13.714;2024-01-11T08:08:43;35.80;;;15.30;;
77158;SDS011;66129;45.890;13.714;2024-01-11T08:11:08;31.42;;;17.13;;
77158;SDS011;66129;45.890;13.714;2024-01-11T08:13:34;30.05;;;15.02;;
77158;SDS011;66129;45.890;13.714;2024-01-11T08:16:00;29.08;;;16.20;;
77158;SDS011;66129;45.890;13.714;2024-01-11T08:18:29;39.28;;;18.20;;
77158;SDS011;66129;45.890;13.714;2024-01-11T08:20:58;25.05;;;13.77;;
77158;SDS011;66129;45.890;13.714;2024-01-11T08:23:23;24.63;;;13.38;;
77158;SDS011;66129;45.890;13.714;2024-01-11T08:25:49;30.10;;;13.50;;
77158;SDS011;66129;45.890;13.714;2024-01-11T08:28:14;25.15;;;11.90;;
77158;SDS011;66129;45.890;13.714;2024-01-11T08:30:40;27.00;;;12.85;;
77158;SDS011;66129;45.890;13.714;2024-01-11T08:33:07;26.27;;;13.70;;
77158;SDS011;66129;45.890;13.714;2024-01-11T08:35:33;30.23;;;14.35;;
77158;SDS011;66129;45.890;13.714;2024-01-11T08:37:58;31.38;;;14.63;;
77158;SDS011;66129;45.890;13.714;2024-01-11T08:40:24;35.25;;;17.08;;
77158;SDS011;66129;45.890;13.714;2024-01-11T08:42:50;29.83;;;14.07;;
77158;SDS011;66129;45.890;13.714;2024-01-11T08:45:16;23.58;;;10.50;;
77158;SDS011;66129;45.890;13.714;2024-01-11T08:47:45;27.77;;;12.48;;
77158;SDS011;66129;45.890;13.714;2024-01-11T08:50:14;20.55;;;11.10;;
77158;SDS011;66129;45.890;13.714;2024-01-11T08:52:41;18.10;;;9.18;;
77158;SDS011;66129;45.890;13.714;2024-01-11T08:55:07;13.98;;;7.88;;
77158;SDS011;66129;45.890;13.714;2024-01-11T08:57:33;19.20;;;9.95;;
77158;SDS011;66129;45.890;13.714;2024-01-11T09:00:00;17.33;;;10.05;;
77158;SDS011;66129;45.890;13.714;2024-01-11T09:02:31;18.38;;;8.88;;
77158;SDS011;66129;45.890;13.714;2024-01-11T09:04:57;16.17;;;9.60;;
77158;SDS011;66129;45.890;13.714;2024-01-11T09:07:23;21.33;;;9.57;;
77158;SDS011;66129;45.890;13.714;2024-01-11T09:09:48;17.70;;;9.65;;
77158;SDS011;66129;45.890;13.714;2024-01-11T09:12:14;15.40;;;8.75;;
77158;SDS011;66129;45.890;13.714;2024-01-11T09:14:39;16.55;;;8.20;;
77158;SDS011;66129;45.890;13.714;2024-01-11T09:17:05;17.73;;;9.27;;
77158;SDS011;66129;45.890;13.714;2024-01-11T09:19:33;18.45;;;9.18;;
77158;SDS011;66129;45.890;13.714;2024-01-11T09:21:59;17.40;;;8.20;;
77158;SDS011;66129;45.890;13.714;2024-01-11T09:24:25;15.57;;;9.00;;
77158;SDS011;66129;45.890;13.714;2024-01-11T09:26:50;14.02;;;7.28;;
77158;SDS011;66129;45.890;13.714;2024-01-11T09:29:16;21.83;;;10.50;;
77158;SDS011;66129;45.890;13.714;2024-01-11T09:31:41;14.32;;;7.70;;
77158;SDS011;66129;45.890;13.714;2024-01-11T09:34:07;13.48;;;8.20;;
77158;SDS011;66129;45.890;13.714;2024-01-11T09:36:33;18.80;;;9.57;;
77158;SDS011;66129;45.890;13.714;2024-01-11T09:38:59;17.33;;;9.32;;
77158;SDS011;66129;45.890;13.714;2024-01-11T09:41:24;16.38;;;8.18;;
77158;SDS011;66129;45.890;13.714;2024-01-11T09:43:51;18.10;;;8.15;;
77158;SDS011;66129;45.890;13.714;2024-01-11T09:46:19;18.05;;;9.48;;
77158;SDS011;66129;45.890;13.714;2024-01-11T09:48:46;14.25;;;7.05;;
77158;SDS011;66129;45.890;13.714;2024-01-11T09:51:13;14.23;;;7.13;;
77158;SDS011;66129;45.890;13.714;2024-01-11T09:53:39;15.07;;;7.18;;
77158;SDS011;66129;45.890;13.714;2024-01-11T09:56:09;15.25;;;7.97;;
77158;SDS011;66129;45.890;13.714;2024-01-11T09:58:35;15.65;;;8.55;;
77158;SDS011;66129;45.890;13.714;2024-01-11T10:01:02;14.60;;;9.73;;
77158;SDS011;66129;45.890;13.714;2024-01-11T10:03:28;14.77;;;7.57;;
77158;SDS011;66129;45.890;13.714;2024-01-11T10:05:54;12.27;;;6.93;;
77158;SDS011;66129;45.890;13.714;2024-01-11T10:08:23;14.30;;;7.10;;
77158;SDS011;66129;45.890;13.714;2024-01-11T10:10:49;11.73;;;6.25;;
77158;SDS011;66129;45.890;13.714;2024-01-11T10:13:15;8.52;;;5.63;;
77158;SDS011;66129;45.890;13.714;2024-01-11T10:15:41;10.60;;;5.18;;
77158;SDS011;66129;45.890;13.714;2024-01-11T10:18:08;9.50;;;5.30;;
77158;SDS011;66129;45.890;13.714;2024-01-11T10:20:33;9.20;;;5.18;;
77158;SDS011;66129;45.890;13.714;2024-01-11T10:22:59;11.23;;;5.13;;
77158;SDS011;66129;45.890;13.714;2024-01-11T10:25:26;9.52;;;5.15;;
77158;SDS011;66129;45.890;13.714;2024-01-11T10:27:52;11.63;;;5.32;;
77158;SDS011;66129;45.890;13.714;2024-01-11T10:30:17;9.38;;;5.00;;
77158;SDS011;66129;45.890;13.714;2024-01-11T10:32:44;9.45;;;5.43;;
77158;SDS011;66129;45.890;13.714;2024-01-11T10:35:10;6.80;;;3.80;;
77158;SDS011;66129;45.890;13.714;2024-01-11T10:37:36;9.02;;;5.45;;
77158;SDS011;66129;45.890;13.714;2024-01-11T10:40:04;9.43;;;4.88;;
77158;SDS011;66129;45.890;13.714;2024-01-11T10:42:34;8.25;;;4.20;;
77158;SDS011;66129;45.890;13.714;2024-01-11T10:45:03;8.80;;;4.50;;
77158;SDS011;66129;45.890;13.714;2024-01-11T10:47:32;8.18;;;5.00;;
77158;SDS011;66129;45.890;13.714;2024-01-11T10:50:00;9.82;;;5.35;;
77158;SDS011;66129;45.890;13.714;2024-01-11T10:52:28;8.27;;;4.28;;
77158;SDS011;66129;45.890;13.714;2024-01-11T10:55:01;8.73;;;4.53;;
77158;SDS011;66129;45.890;13.714;2024-01-11T10:57:29;6.18;;;3.75;;
77158;SDS011;66129;45.890;13.714;2024-01-11T10:59:56;8.13;;;4.28;;
77158;SDS011;66129;45.890;13.714;2024-01-11T11:02:23;8.48;;;4.35;;
77158;SDS011;66129;45.890;13.714;2024-01-11T11:04:49;9.90;;;5.00;;
77158;SDS011;66129;45.890;13.714;2024-01-11T11:07:18;10.25;;;4.68;;
77158;SDS011;66129;45.890;13.714;2024-01-11T11:09:44;8.63;;;4.82;;
77158;SDS011;66129;45.890;13.714;2024-01-11T11:12:14;10.73;;;5.05;;
77158;SDS011;66129;45.890;13.714;2024-01-11T11:14:41;7.53;;;3.83;;
77158;SDS011;66129;45.890;13.714;2024-01-11T11:17:09;8.20;;;4.43;;
77158;SDS011;66129;45.890;13.714;2024-01-11T11:19:34;9.90;;;4.97;;
77158;SDS011;66129;45.890;13.714;2024-01-11T11:22:03;8.43;;;4.72;;
77158;SDS011;66129;45.890;13.714;2024-01-11T11:24:29;9.35;;;4.63;;
77158;SDS011;66129;45.890;13.714;2024-01-11T11:26:55;8.70;;;4.07;;
77158;SDS011;66129;45.890;13.714;2024-01-11T11:29:22;7.57;;;4.50;;
77158;SDS011;66129;45.890;13.714;2024-01-11T11:31:47;7.47;;;4.05;;
77158;SDS011;66129;45.890;13.714;2024-01-11T11:34:19;7.18;;;4.13;;
77158;SDS011;66129;45.890;13.714;2024-01-11T11:36:47;8.35;;;4.10;;
77158;SDS011;66129;45.890;13.714;2024-01-11T11:39:19;10.20;;;4.25;;
77158;SDS011;66129;45.890;13.714;2024-01-11T11:41:45;8.43;;;4.75;;
77158;SDS011;66129;45.890;13.714;2024-01-11T11:44:11;7.43;;;4.25;;
77158;SDS011;66129;45.890;13.714;2024-01-11T11:46:38;8.15;;;4.10;;
77158;SDS011;66129;45.890;13.714;2024-01-11T11:49:04;10.38;;;4.45;;
77158;SDS011;66129;45.890;13.714;2024-01-11T11:51:30;6.78;;;4.28;;
77158;SDS011;66129;45.890;13.714;2024-01-11T11:53:57;8.63;;;4.95;;
77158;SDS011;66129;45.890;13.714;2024-01-11T11:56:23;8.38;;;3.97;;
77158;SDS011;66129;45.890;13.714;2024-01-11T11:58:49;8.57;;;4.70;;
77158;SDS011;66129;45.890;13.714;2024-01-11T12:01:15;7.50;;;4.00;;
77158;SDS011;66129;45.890;13.714;2024-01-11T12:03:42;6.80;;;3.83;;
77158;SDS011;66129;45.890;13.714;2024-01-11T12:06:14;8.25;;;4.20;;
77158;SDS011;66129;45.890;13.714;2024-01-11T12:08:41;8.98;;;5.30;;
77158;SDS011;66129;45.890;13.714;2024-01-11T12:11:08;7.68;;;3.55;;
77158;SDS011;66129;45.890;13.714;2024-01-11T12:13:34;8.05;;;4.00;;
77158;SDS011;66129;45.890;13.714;2024-01-11T12:16:00;7.63;;;3.83;;
77158;SDS011;66129;45.890;13.714;2024-01-11T12:18:25;7.53;;;3.78;;
77158;SDS011;66129;45.890;13.714;2024-01-11T12:20:51;9.05;;;3.40;;
77158;SDS011;66129;45.890;13.714;2024-01-11T12:23:19;5.40;;;3.05;;
77158;SDS011;66129;45.890;13.714;2024-01-11T12:25:45;6.80;;;2.78;;
77158;SDS011;66129;45.890;13.714;2024-01-11T12:28:10;7.93;;;3.72;;
77158;SDS011;66129;45.890;13.714;2024-01-11T12:30:36;7.93;;;3.45;;
77158;SDS011;66129;45.890;13.714;2024-01-11T12:33:03;6.05;;;2.67;;
77158;SDS011;66129;45.890;13.714;2024-01-11T12:35:30;8.25;;;4.20;;
77158;SDS011;66129;45.890;13.714;2024-01-11T12:37:59;6.50;;;2.83;;
77158;SDS011;66129;45.890;13.714;2024-01-11T12:40:27;7.88;;;3.58;;
77158;SDS011;66129;45.890;13.714;2024-01-11T12:42:53;7.35;;;3.25;;
77158;SDS011;66129;45.890;13.714;2024-01-11T12:45:19;3.97;;;2.67;;
77158;SDS011;66129;45.890;13.714;2024-01-11T12:47:45;6.40;;;3.25;;
77158;SDS011;66129;45.890;13.714;2024-01-11T12:50:11;11.93;;;3.83;;
77158;SDS011;66129;45.890;13.714;2024-01-11T12:52:37;6.70;;;2.97;;
77158;SDS011;66129;45.890;13.714;2024-01-11T12:55:03;5.32;;;3.25;;
77158;SDS011;66129;45.890;13.714;2024-01-11T12:57:30;7.40;;;2.88;;
77158;SDS011;66129;45.890;13.714;2024-01-11T13:00:01;7.22;;;2.92;;
77158;SDS011;66129;45.890;13.714;2024-01-11T13:02:35;6.53;;;3.08;;
77158;SDS011;66129;45.890;13.714;2024-01-11T13:05:01;6.22;;;3.13;;
77158;SDS011;66129;45.890;13.714;2024-01-11T13:07:27;5.72;;;2.90;;
77158;SDS011;66129;45.890;13.714;2024-01-11T13:09:53;7.60;;;3.50;;
77158;SDS011;66129;45.890;13.714;2024-01-11T13:12:18;5.07;;;2.40;;
77158;SDS011;66129;45.890;13.714;2024-01-11T13:14:46;4.82;;;2.33;;
77158;SDS011;66129;45.890;13.714;2024-01-11T13:17:12;6.05;;;2.35;;
77158;SDS011;66129;45.890;13.714;2024-01-11T13:19:37;9.55;;;4.18;;
77158;SDS011;66129;45.890;13.714;2024-01-11T13:22:04;12.00;;;4.70;;
77158;SDS011;66129;45.890;13.714;2024-01-11T13:24:29;9.27;;;3.63;;
77158;SDS011;66129;45.890;13.714;2024-01-11T13:26:55;10.60;;;5.07;;
77158;SDS011;66129;45.890;13.714;2024-01-11T13:29:20;13.93;;;5.57;;
77158;SDS011;66129;45.890;13.714;2024-01-11T13:31:46;8.65;;;3.35;;
77158;SDS011;66129;45.890;13.714;2024-01-11T13:34:11;5.63;;;2.95;;
77158;SDS011;66129;45.890;13.714;2024-01-11T13:36:37;4.00;;;2.15;;
77158;SDS011;66129;45.890;13.714;2024-01-11T13:39:02;4.43;;;2.35;;
77158;SDS011;66129;45.890;13.714;2024-01-11T13:41:28;6.35;;;2.55;;
77158;SDS011;66129;45.890;13.714;2024-01-11T13:43:53;4.15;;;2.10;;
77158;SDS011;66129;45.890;13.714;2024-01-11T13:46:19;5.03;;;2.42;;
77158;SDS011;66129;45.890;13.714;2024-01-11T13:48:45;6.35;;;2.22;;
77158;SDS011;66129;45.890;13.714;2024-01-11T13:51:12;3.78;;;1.63;;
77158;SDS011;66129;45.890;13.714;2024-01-11T13:53:40;3.67;;;1.75;;
77158;SDS011;66129;45.890;13.714;2024-01-11T13:56:06;4.55;;;1.80;;
77158;SDS011;66129;45.890;13.714;2024-01-11T13:58:31;3.90;;;1.77;;
77158;SDS011;66129;45.890;13.714;2024-01-11T14:00:57;4.40;;;2.03;;
77158;SDS011;66129;45.890;13.714;2024-01-11T14:03:22;5.57;;;2.75;;
77158;SDS011;66129;45.890;13.714;2024-01-11T14:05:48;4.25;;;2.70;;
77158;SDS011;66129;45.890;13.714;2024-01-11T14:08:14;5.03;;;2.42;;
77158;SDS011;66129;45.890;13.714;2024-01-11T14:10:39;5.45;;;2.80;;
77158;SDS011;66129;45.890;13.714;2024-01-11T14:13:04;12.40;;;4.82;;
77158;SDS011;66129;45.890;13.714;2024-01-11T14:15:33;4.70;;;2.88;;
77158;SDS011;66129;45.890;13.714;2024-01-11T14:17:58;4.38;;;2.55;;
77158;SDS011;66129;45.890;13.714;2024-01-11T14:20:24;6.57;;;2.90;;